createdAt,value
2019-02-15T00:00:43.485Z,4.59
2019-02-15T00:03:46.528Z,4.45
2019-02-15T00:06:49.484Z,4.43
2019-02-15T00:09:53.174Z,4.37
2019-02-15T00:12:56.124Z,4.51
2019-02-15T00:15:59.085Z,4.56
2019-02-15T00:19:27.597Z,4.48
2019-02-15T00:22:30.990Z,4.55
2019-02-15T00:25:34.638Z,4.72
2019-02-15T00:28:37.876Z,4.84
2019-02-15T00:31:41.196Z,4.89
2019-02-15T00:34:44.544Z,4.57
2019-02-15T00:37:47.887Z,4.45
2019-02-15T00:40:51.328Z,4.56
2019-02-15T00:43:54.650Z,4.71
2019-02-15T00:47:15.024Z,4.78
2019-02-15T00:50:30.522Z,4.77
2019-02-15T00:53:48.305Z,4.42
2019-02-15T00:56:58.358Z,4.71
2019-02-15T01:00:32.148Z,4.80
2019-02-15T01:04:00.902Z,4.53
2019-02-15T01:07:26.894Z,4.82
2019-02-15T01:10:50.640Z,4.55
2019-02-15T01:13:53.971Z,4.41
2019-02-15T01:16:56.911Z,4.43
2019-02-15T01:19:59.878Z,4.50
2019-02-15T01:23:02.876Z,4.29
2019-02-15T01:26:26.402Z,4.16
2019-02-15T01:29:52.485Z,4.20
2019-02-15T01:33:03.038Z,4.22
2019-02-15T01:36:31.540Z,4.37
2019-02-15T01:40:10.170Z,4.36
2019-02-15T01:43:39.730Z,4.57
2019-02-15T01:46:59.719Z,4.59
2019-02-15T01:50:02.917Z,4.48
2019-02-15T01:53:06.381Z,4.56
2019-02-15T01:56:09.702Z,4.71
2019-02-15T01:59:13.396Z,4.53
2019-02-15T02:02:16.755Z,4.50
2019-02-15T02:05:19.718Z,4.46
2019-02-15T02:08:24.924Z,4.43
2019-02-15T02:11:27.866Z,4.44
2019-02-15T02:14:30.826Z,4.35
2019-02-15T02:17:33.777Z,4.51
2019-02-15T02:20:36.847Z,4.33
2019-02-15T02:23:40.319Z,4.36
2019-02-15T02:26:43.715Z,4.25
2019-02-15T02:29:47.070Z,4.19
2019-02-15T02:32:50.402Z,4.20
2019-02-15T02:35:53.364Z,4.43
2019-02-15T02:38:56.441Z,4.57
2019-02-15T02:41:59.483Z,4.56
2019-02-15T02:45:03.161Z,4.32
2019-02-15T02:48:06.189Z,4.32
2019-02-15T02:51:09.151Z,4.46
2019-02-15T02:54:12.492Z,4.36
2019-02-15T02:57:15.530Z,4.23
2019-02-15T03:00:18.849Z,4.20
2019-02-15T03:03:22.065Z,4.24
2019-02-15T03:06:25.016Z,4.17
2019-02-15T03:09:27.971Z,4.15
2019-02-15T03:12:30.926Z,4.31
2019-02-15T03:15:34.301Z,4.14
2019-02-15T03:18:37.594Z,4.20
2019-02-15T03:21:40.554Z,4.14
2019-02-15T03:24:44.288Z,4.14
2019-02-15T03:27:47.564Z,3.95
2019-02-15T03:30:50.865Z,3.98
2019-02-15T03:33:53.808Z,4.03
2019-02-15T03:37:17.777Z,3.83
2019-02-15T03:40:39.780Z,3.91
2019-02-15T03:43:43.008Z,3.89
2019-02-15T03:46:46.259Z,3.98
2019-02-15T03:49:49.704Z,3.78
2019-02-15T03:52:54.057Z,3.81
2019-02-15T03:55:57.543Z,3.67
2019-02-15T03:59:00.982Z,3.74
2019-02-15T04:02:03.920Z,3.80
2019-02-15T04:05:08.660Z,3.97
2019-02-15T04:08:11.617Z,3.88
2019-02-15T04:11:15.338Z,3.77
2019-02-15T04:14:18.275Z,3.87
2019-02-15T04:17:21.596Z,3.72
2019-02-15T04:20:25.350Z,3.57
2019-02-15T04:23:29.687Z,3.85
2019-02-15T04:26:32.733Z,3.82
2019-02-15T04:29:36.095Z,3.91
2019-02-15T04:32:39.369Z,3.83
2019-02-15T04:35:42.312Z,3.82
2019-02-15T04:38:45.265Z,3.97
2019-02-15T04:41:48.575Z,4.09
2019-02-15T04:44:51.586Z,4.01
2019-02-15T04:47:54.578Z,3.85
2019-02-15T04:50:58.228Z,3.84
2019-02-15T04:54:02.288Z,3.88
2019-02-15T04:57:05.258Z,3.77
2019-02-15T05:00:08.218Z,3.66
2019-02-15T05:03:11.499Z,3.70
2019-02-15T05:06:14.433Z,3.62
2019-02-15T05:09:18.044Z,3.82
2019-02-15T05:12:21.683Z,3.68
2019-02-15T05:15:24.987Z,3.66
2019-02-15T05:18:27.935Z,3.72
2019-02-15T05:21:31.181Z,3.70
2019-02-15T05:24:34.172Z,3.64
2019-02-15T05:27:37.512Z,3.71
2019-02-15T05:30:41.470Z,3.78
2019-02-15T05:33:44.406Z,3.66
2019-02-15T05:36:48.264Z,3.64
2019-02-15T05:39:51.557Z,3.59
2019-02-15T05:42:55.528Z,3.57
2019-02-15T05:45:58.485Z,3.70
2019-02-15T05:49:02.551Z,3.52
2019-02-15T05:52:05.513Z,3.68
2019-02-15T05:55:08.842Z,3.88
2019-02-15T05:58:11.794Z,3.62
2019-02-15T06:01:15.337Z,3.72
2019-02-15T06:04:18.276Z,3.68
2019-02-15T06:07:21.982Z,3.60
2019-02-15T06:10:25.272Z,3.54
2019-02-15T06:13:28.216Z,3.57
2019-02-15T06:16:31.519Z,3.46
2019-02-15T06:19:34.794Z,3.34
2019-02-15T06:22:37.785Z,3.41
2019-02-15T06:25:42.173Z,3.39
2019-02-15T06:28:45.556Z,3.32
2019-02-15T06:31:48.510Z,3.46
2019-02-15T06:34:51.842Z,3.32
2019-02-15T06:37:55.423Z,3.51
2019-02-15T06:40:59.328Z,3.53
2019-02-15T06:44:03.213Z,3.61
2019-02-15T06:47:06.172Z,3.40
2019-02-15T06:50:09.111Z,3.48
2019-02-15T06:53:12.076Z,3.52
2019-02-15T06:56:15.410Z,3.61
2019-02-15T06:59:37.260Z,3.71
2019-02-15T07:02:47.971Z,3.57
2019-02-15T07:05:50.940Z,3.72
2019-02-15T07:08:54.365Z,3.74
2019-02-15T07:11:57.324Z,3.50
2019-02-15T07:15:02.006Z,3.78
2019-02-15T07:18:05.793Z,3.55
2019-02-15T07:21:08.727Z,3.49
2019-02-15T07:24:11.710Z,3.45
2019-02-15T07:27:14.677Z,3.67
2019-02-15T07:30:17.637Z,3.48
2019-02-15T07:33:20.933Z,3.45
2019-02-15T07:36:24.252Z,3.35
2019-02-15T07:39:27.219Z,3.30
2019-02-15T07:42:30.564Z,3.38
2019-02-15T07:45:42.435Z,3.30
2019-02-15T07:48:38.486Z,3.41
2019-02-15T07:51:41.801Z,3.50
2019-02-15T07:54:45.151Z,3.67
2019-02-15T07:57:48.124Z,3.69
2019-02-15T08:00:51.083Z,3.85
2019-02-15T08:03:54.873Z,4.03
2019-02-15T08:06:58.120Z,4.20
2019-02-15T08:10:01.132Z,4.38
2019-02-15T08:13:05.133Z,4.61
2019-02-15T08:16:08.433Z,4.78
2019-02-15T08:19:11.376Z,4.82
2019-02-15T08:22:14.364Z,4.96
2019-02-15T08:25:17.643Z,5.09
2019-02-15T08:28:20.660Z,5.27
2019-02-15T08:31:24.286Z,5.46
2019-02-15T08:34:27.674Z,5.89
2019-02-15T08:37:30.636Z,5.56
2019-02-15T08:40:34.040Z,5.94
2019-02-15T08:43:37.374Z,5.99
2019-02-15T08:46:40.734Z,6.02
2019-02-15T08:49:43.667Z,6.05
2019-02-15T08:52:47.465Z,6.35
2019-02-15T08:55:50.425Z,6.20
2019-02-15T08:58:53.864Z,6.24
2019-02-15T09:02:04.003Z,6.39
2019-02-15T09:05:09.463Z,6.60
2019-02-15T09:08:12.441Z,6.54
2019-02-15T09:11:15.399Z,6.41
2019-02-15T09:14:19.039Z,8.07
2019-02-15T09:17:22.333Z,8.79
2019-02-15T09:20:25.628Z,7.91
2019-02-15T09:23:29.059Z,7.48
2019-02-15T09:26:32.360Z,7.26
2019-02-15T09:29:35.717Z,7.40
2019-02-15T09:32:38.740Z,8.17
2019-02-15T09:35:41.681Z,8.10
2019-02-15T09:38:44.649Z,8.58
2019-02-15T09:41:49.497Z,9.20
2019-02-15T09:44:52.900Z,9.18
2019-02-15T09:47:56.561Z,9.59
2019-02-15T09:50:59.521Z,9.44
2019-02-15T09:54:02.806Z,9.29
2019-02-15T09:57:05.748Z,9.80
2019-02-15T10:00:08.741Z,9.53
2019-02-15T10:03:12.082Z,9.75
2019-02-15T10:06:15.794Z,9.54
2019-02-15T10:09:19.483Z,9.37
2019-02-15T10:12:23.190Z,9.30
2019-02-15T10:15:26.150Z,9.83
2019-02-15T10:18:29.100Z,10.50
2019-02-15T10:21:32.071Z,10.35
2019-02-15T10:24:37.225Z,11.15
2019-02-15T10:27:40.559Z,10.87
2019-02-15T10:30:45.024Z,10.54
2019-02-15T10:33:48.073Z,10.51
2019-02-15T10:36:51.430Z,11.60
2019-02-15T10:39:54.750Z,11.50
2019-02-15T10:42:58.062Z,11.94
2019-02-15T10:46:01.033Z,11.28
2019-02-15T10:49:03.988Z,11.47
2019-02-15T10:52:07.056Z,11.22
2019-02-15T10:55:10.315Z,11.90
2019-02-15T10:58:13.386Z,12.05
2019-02-15T11:01:16.838Z,11.86
2019-02-15T11:04:19.901Z,12.62
2019-02-15T11:07:23.587Z,12.00
2019-02-15T11:10:26.837Z,12.34
2019-02-15T11:13:30.494Z,12.37
2019-02-15T11:16:33.795Z,12.98
2019-02-15T11:19:36.789Z,12.92
2019-02-15T11:22:39.782Z,13.20
2019-02-15T11:25:42.739Z,13.12
2019-02-15T11:28:45.722Z,13.26
2019-02-15T11:31:49.092Z,13.25
2019-02-15T11:34:52.048Z,13.65
2019-02-15T11:37:55.340Z,13.46
2019-02-15T11:40:58.672Z,14.36
2019-02-15T11:44:01.855Z,13.61
2019-02-15T11:47:04.895Z,13.65
2019-02-15T11:50:10.019Z,13.61
2019-02-15T11:53:13.083Z,13.45
2019-02-15T11:56:16.481Z,13.77
2019-02-15T11:59:19.458Z,14.19
2019-02-15T12:02:22.443Z,13.55
2019-02-15T12:05:25.412Z,15.43
2019-02-15T12:08:28.791Z,14.73
2019-02-15T12:11:33.108Z,14.74
2019-02-15T12:14:36.070Z,14.54
2019-02-15T12:17:39.347Z,15.03
2019-02-15T12:20:43.179Z,15.06
2019-02-15T12:23:46.148Z,14.85
2019-02-15T12:26:49.501Z,15.62
2019-02-15T12:29:52.472Z,14.98
2019-02-15T12:32:56.105Z,15.73
2019-02-15T12:35:59.059Z,15.84
2019-02-15T12:39:04.178Z,15.68
2019-02-15T12:42:09.031Z,15.43
2019-02-15T12:45:14.608Z,15.68
2019-02-15T12:48:17.562Z,14.30
2019-02-15T12:51:20.927Z,14.88
2019-02-15T12:54:23.892Z,14.52
2019-02-15T12:57:27.350Z,15.92
2019-02-15T13:00:33.135Z,15.89
2019-02-15T13:03:36.545Z,16.06
2019-02-15T13:06:40.313Z,15.48
2019-02-15T13:09:44.261Z,15.19
2019-02-15T13:12:47.585Z,15.66
2019-02-15T13:15:50.967Z,15.45
2019-02-15T13:18:53.920Z,15.22
2019-02-15T13:21:57.267Z,15.62
2019-02-15T13:25:00.217Z,14.94
2019-02-15T13:28:03.172Z,14.71
2019-02-15T13:31:06.532Z,15.63
2019-02-15T13:34:09.848Z,14.86
2019-02-15T13:37:13.199Z,15.66
2019-02-15T13:40:16.145Z,15.28
2019-02-15T13:43:19.556Z,15.44
2019-02-15T13:46:22.790Z,14.68
2019-02-15T13:49:25.761Z,15.21
2019-02-15T13:52:28.722Z,15.07
2019-02-15T13:55:32.099Z,14.75
2019-02-15T13:58:35.053Z,14.82
2019-02-15T14:01:38.027Z,15.82
2019-02-15T14:04:40.999Z,15.43
2019-02-15T14:07:44.944Z,14.60
2019-02-15T14:10:48.198Z,14.78
2019-02-15T14:13:51.190Z,14.81
2019-02-15T14:16:54.151Z,14.70
2019-02-15T14:19:57.492Z,14.58
2019-02-15T14:23:00.935Z,14.45
2019-02-15T14:26:04.251Z,14.49
2019-02-15T14:29:07.504Z,14.22
2019-02-15T14:32:10.443Z,14.32
2019-02-15T14:35:13.690Z,14.43
2019-02-15T14:38:17.533Z,14.39
2019-02-15T14:41:20.829Z,13.80
2019-02-15T14:44:24.127Z,13.70
2019-02-15T14:47:27.071Z,14.28
2019-02-15T14:50:30.855Z,14.10
2019-02-15T14:53:34.626Z,13.75
2019-02-15T14:56:37.895Z,14.18
2019-02-15T14:59:40.987Z,13.84
2019-02-15T15:02:44.311Z,13.28
2019-02-15T15:05:47.314Z,14.06
2019-02-15T15:08:50.644Z,13.50
2019-02-15T15:11:54.660Z,13.51
2019-02-15T15:14:57.770Z,13.25
2019-02-15T15:18:12.371Z,12.96
2019-02-15T15:21:06.410Z,12.88
2019-02-15T15:24:10.216Z,12.86
2019-02-15T15:27:13.509Z,12.76
2019-02-15T15:30:16.500Z,12.65
2019-02-15T15:33:19.448Z,12.38
2019-02-15T15:36:22.453Z,12.89
2019-02-15T15:39:25.440Z,12.93
2019-02-15T15:42:28.404Z,12.49
2019-02-15T15:45:31.697Z,12.26
2019-02-15T15:48:34.988Z,12.23
2019-02-15T15:51:37.952Z,12.09
2019-02-15T15:54:41.472Z,11.77
2019-02-15T15:57:45.224Z,11.77
2019-02-15T16:00:48.197Z,11.47
2019-02-15T16:03:51.489Z,11.48
2019-02-15T16:06:54.897Z,11.39
2019-02-15T16:09:57.881Z,11.45
2019-02-15T16:13:01.177Z,11.32
2019-02-15T16:16:04.504Z,11.20
2019-02-15T16:19:07.452Z,11.19
2019-02-15T16:22:10.751Z,11.11
2019-02-15T16:25:14.097Z,10.96
2019-02-15T16:28:17.070Z,10.94
2019-02-15T16:31:20.040Z,10.81
2019-02-15T16:34:23.399Z,10.73
2019-02-15T16:37:26.436Z,10.59
2019-02-15T16:40:29.381Z,10.59
2019-02-15T16:43:32.373Z,10.59
2019-02-15T16:46:35.343Z,10.51
2019-02-15T16:49:38.677Z,10.46
2019-02-15T16:52:41.633Z,10.34
2019-02-15T16:55:44.944Z,10.20
2019-02-15T16:58:48.253Z,10.12
2019-02-15T17:01:51.618Z,10.05
2019-02-15T17:04:55.032Z,9.99
2019-02-15T17:07:58.048Z,9.89
2019-02-15T17:11:01.002Z,9.82
2019-02-15T17:14:03.970Z,9.62
2019-02-15T17:17:07.640Z,9.71
2019-02-15T17:20:11.635Z,9.76
2019-02-15T17:23:14.708Z,9.63
2019-02-15T17:26:17.687Z,9.48
2019-02-15T17:29:22.086Z,9.41
2019-02-15T17:32:25.064Z,9.51
2019-02-15T17:35:28.763Z,9.52
2019-02-15T17:38:31.740Z,9.49
2019-02-15T17:41:35.435Z,9.68
2019-02-15T17:44:38.516Z,9.62
2019-02-15T17:47:42.585Z,9.53
2019-02-15T17:50:45.526Z,9.43
2019-02-15T17:53:48.507Z,9.80
2019-02-15T17:56:51.840Z,9.80
2019-02-15T17:59:54.816Z,10.05
2019-02-15T18:02:57.801Z,9.89
2019-02-15T18:06:01.096Z,9.84
2019-02-15T18:09:05.154Z,9.77
2019-02-15T18:12:10.261Z,9.70
2019-02-15T18:15:13.590Z,9.96
2019-02-15T18:18:17.306Z,10.08
2019-02-15T18:21:20.300Z,10.24
2019-02-15T18:24:23.673Z,10.11
2019-02-15T18:27:26.617Z,10.61
2019-02-15T18:30:29.854Z,10.44
2019-02-15T18:33:32.829Z,10.67
2019-02-15T18:36:35.843Z,11.02
2019-02-15T18:39:39.213Z,11.04
2019-02-15T18:42:42.532Z,11.04
2019-02-15T18:45:46.296Z,11.04
2019-02-15T18:48:50.818Z,11.08
2019-02-15T18:51:53.998Z,11.28
2019-02-15T18:54:56.961Z,11.15
2019-02-15T18:58:00.309Z,10.90
2019-02-15T19:01:03.252Z,10.76
2019-02-15T19:04:06.311Z,10.81
2019-02-15T19:07:09.394Z,10.80
2019-02-15T19:10:15.326Z,10.82
2019-02-15T19:13:19.705Z,10.93
2019-02-15T19:16:22.771Z,10.69
2019-02-15T19:19:29.186Z,10.75
2019-02-15T19:22:30.930Z,10.70
2019-02-15T19:25:34.228Z,10.60
2019-02-15T19:28:37.203Z,10.86
2019-02-15T19:31:40.516Z,10.71
2019-02-15T19:34:43.816Z,10.77
2019-02-15T19:37:47.105Z,10.83
2019-02-15T19:40:50.523Z,10.80
2019-02-15T19:43:53.499Z,10.74
2019-02-15T19:46:59.501Z,10.84
2019-02-15T19:50:04.946Z,10.82
2019-02-15T19:53:07.954Z,10.79
2019-02-15T19:56:12.293Z,10.92
2019-02-15T19:59:15.356Z,10.93
2019-02-15T20:02:18.429Z,10.92
2019-02-15T20:05:23.277Z,10.88
2019-02-15T20:08:28.096Z,10.81
2019-02-15T20:11:32.032Z,10.76
2019-02-15T20:14:34.987Z,10.88
2019-02-15T20:17:38.698Z,11.01
2019-02-15T20:20:42.130Z,11.08
2019-02-15T20:23:45.156Z,11.16
2019-02-15T20:26:48.143Z,11.20
2019-02-15T20:29:51.437Z,11.27
2019-02-15T20:32:54.404Z,11.43
2019-02-15T20:35:57.347Z,11.59
2019-02-15T20:39:01.649Z,11.58
2019-02-15T20:42:06.854Z,11.44
2019-02-15T20:45:14.114Z,11.47
2019-02-15T20:48:17.479Z,11.47
2019-02-15T20:51:20.434Z,11.58
2019-02-15T20:54:23.403Z,11.50
2019-02-15T20:57:26.359Z,11.51
2019-02-15T21:00:29.884Z,11.54
2019-02-15T21:03:32.967Z,11.49
2019-02-15T21:06:35.971Z,11.59
2019-02-15T21:09:38.951Z,11.52
2019-02-15T21:12:42.341Z,11.47
2019-02-15T21:15:45.575Z,11.40
2019-02-15T21:18:48.877Z,11.38
2019-02-15T21:21:52.583Z,11.41
2019-02-15T21:24:55.544Z,11.55
2019-02-15T21:27:58.991Z,11.47
2019-02-15T21:31:02.699Z,11.51
2019-02-15T21:34:06.089Z,11.58
2019-02-15T21:37:09.471Z,11.57
2019-02-15T21:40:13.634Z,11.50
2019-02-15T21:43:18.048Z,11.46
2019-02-15T21:46:21.506Z,11.81
2019-02-15T21:49:25.212Z,11.53
2019-02-15T21:52:28.182Z,11.46
2019-02-15T21:55:31.843Z,11.51
2019-02-15T21:58:34.791Z,11.39
2019-02-15T22:01:37.757Z,11.30
2019-02-15T22:04:41.009Z,11.39
2019-02-15T22:07:44.018Z,11.38
2019-02-15T22:10:47.067Z,11.48
2019-02-15T22:13:50.460Z,11.29
2019-02-15T22:16:53.459Z,11.28
2019-02-15T22:19:58.155Z,11.36
2019-02-15T22:23:01.293Z,11.40
2019-02-15T22:26:04.259Z,11.32
2019-02-15T22:29:07.694Z,11.24
2019-02-15T22:32:10.648Z,11.18
2019-02-15T22:35:14.708Z,11.15
2019-02-15T22:38:18.039Z,11.15
2019-02-15T22:41:21.679Z,11.13
2019-02-15T22:44:25.031Z,11.29
2019-02-15T22:47:28.361Z,11.17
2019-02-15T22:50:35.952Z,11.26
2019-02-15T22:53:37.019Z,11.27
2019-02-15T22:56:40.398Z,11.13
2019-02-15T22:59:43.348Z,11.22
2019-02-15T23:02:46.400Z,11.14
2019-02-15T23:05:49.452Z,11.16
2019-02-15T23:08:52.454Z,11.19
2019-02-15T23:11:55.423Z,11.13
2019-02-15T23:14:58.463Z,11.11
2019-02-15T23:18:01.423Z,11.10
2019-02-15T23:21:04.776Z,11.07
2019-02-15T23:24:07.744Z,11.10
2019-02-15T23:27:10.792Z,11.07
2019-02-15T23:30:14.429Z,11.08
2019-02-15T23:33:17.728Z,10.99
2019-02-15T23:36:21.045Z,10.92
2019-02-15T23:39:24.035Z,10.93
2019-02-15T23:42:26.981Z,10.90
2019-02-15T23:45:29.941Z,10.97
2019-02-15T23:48:32.898Z,10.83
2019-02-15T23:51:36.955Z,10.95
2019-02-15T23:54:40.181Z,10.79
2019-02-15T23:57:43.488Z,10.72
